sensor_id;sensor_type;location;lat;lon;timestamp;P1;durP1;ratioP1;P2;durP2;ratioP2
20776;SDS011;10548;47.504;8.248;2023-07-28T00:01:07;8.50;;;4.20;;
20776;SDS011;10548;47.504;8.248;2023-07-28T00:03:35;6.63;;;4.70;;
20776;SDS011;10548;47.504;8.248;2023-07-28T00:06:02;7.03;;;4.47;;
20776;SDS011;10548;47.504;8.248;2023-07-28T00:08:29;7.07;;;4.73;;
20776;SDS011;10548;47.504;8.248;2023-07-28T00:10:56;8.03;;;5.10;;
20776;SDS011;10548;47.504;8.248;2023-07-28T00:13:23;8.37;;;5.20;;
20776;SDS011;10548;47.504;8.248;2023-07-28T00:15:50;6.77;;;5.00;;
20776;SDS011;10548;47.504;8.248;2023-07-28T00:18:17;7.13;;;4.83;;
20776;SDS011;10548;47.504;8.248;2023-07-28T00:20:47;6.00;;;4.47;;
20776;SDS011;10548;47.504;8.248;2023-07-28T00:23:14;7.17;;;4.30;;
20776;SDS011;10548;47.504;8.248;2023-07-28T00:25:41;10.40;;;4.80;;
20776;SDS011;10548;47.504;8.248;2023-07-28T00:28:08;6.63;;;4.77;;
20776;SDS011;10548;47.504;8.248;2023-07-28T00:30:36;6.73;;;4.60;;
20776;SDS011;10548;47.504;8.248;2023-07-28T00:33:03;9.73;;;5.30;;
20776;SDS011;10548;47.504;8.248;2023-07-28T00:35:30;7.20;;;5.60;;
20776;SDS011;10548;47.504;8.248;2023-07-28T00:37:57;7.30;;;5.60;;
20776;SDS011;10548;47.504;8.248;2023-07-28T00:40:25;8.27;;;4.97;;
20776;SDS011;10548;47.504;8.248;2023-07-28T00:42:52;5.90;;;4.73;;
20776;SDS011;10548;47.504;8.248;2023-07-28T00:45:19;11.30;;;5.20;;
20776;SDS011;10548;47.504;8.248;2023-07-28T00:47:47;5.73;;;4.97;;
20776;SDS011;10548;47.504;8.248;2023-07-28T00:50:15;10.07;;;5.33;;
20776;SDS011;10548;47.504;8.248;2023-07-28T00:52:42;8.20;;;5.63;;
20776;SDS011;10548;47.504;8.248;2023-07-28T00:55:09;10.63;;;5.43;;
20776;SDS011;10548;47.504;8.248;2023-07-28T00:57:36;7.10;;;4.97;;
20776;SDS011;10548;47.504;8.248;2023-07-28T01:00:09;12.80;;;5.53;;
20776;SDS011;10548;47.504;8.248;2023-07-28T01:02:41;8.20;;;5.10;;
20776;SDS011;10548;47.504;8.248;2023-07-28T01:05:08;11.50;;;5.50;;
20776;SDS011;10548;47.504;8.248;2023-07-28T01:07:37;6.73;;;5.07;;
20776;SDS011;10548;47.504;8.248;2023-07-28T01:10:30;8.43;;;5.03;;
20776;SDS011;10548;47.504;8.248;2023-07-28T01:13:01;19.27;;;5.60;;
20776;SDS011;10548;47.504;8.248;2023-07-28T01:15:28;7.17;;;5.07;;
20776;SDS011;10548;47.504;8.248;2023-07-28T01:17:56;8.03;;;5.60;;
20776;SDS011;10548;47.504;8.248;2023-07-28T01:20:24;6.80;;;5.33;;
20776;SDS011;10548;47.504;8.248;2023-07-28T01:26:04;6.80;;;4.93;;
20776;SDS011;10548;47.504;8.248;2023-07-28T01:28:34;8.07;;;4.87;;
20776;SDS011;10548;47.504;8.248;2023-07-28T01:31:02;7.80;;;5.33;;
20776;SDS011;10548;47.504;8.248;2023-07-28T01:33:31;7.17;;;5.23;;
20776;SDS011;10548;47.504;8.248;2023-07-28T01:35:59;8.40;;;5.43;;
20776;SDS011;10548;47.504;8.248;2023-07-28T01:38:27;8.07;;;4.77;;
20776;SDS011;10548;47.504;8.248;2023-07-28T01:40:55;7.20;;;5.20;;
20776;SDS011;10548;47.504;8.248;2023-07-28T01:43:22;7.57;;;4.63;;
20776;SDS011;10548;47.504;8.248;2023-07-28T01:45:49;8.73;;;4.87;;
20776;SDS011;10548;47.504;8.248;2023-07-28T01:48:16;8.93;;;5.13;;
20776;SDS011;10548;47.504;8.248;2023-07-28T01:50:43;6.40;;;5.70;;
20776;SDS011;10548;47.504;8.248;2023-07-28T01:53:10;12.03;;;6.67;;
20776;SDS011;10548;47.504;8.248;2023-07-28T01:55:37;9.00;;;7.00;;
20776;SDS011;10548;47.504;8.248;2023-07-28T01:58:05;9.87;;;5.70;;
20776;SDS011;10548;47.504;8.248;2023-07-28T02:00:32;8.03;;;5.23;;
20776;SDS011;10548;47.504;8.248;2023-07-28T02:02:59;10.33;;;7.07;;
20776;SDS011;10548;47.504;8.248;2023-07-28T02:05:28;10.53;;;6.20;;
20776;SDS011;10548;47.504;8.248;2023-07-28T02:07:56;9.10;;;6.30;;
20776;SDS011;10548;47.504;8.248;2023-07-28T02:10:25;6.73;;;5.60;;
20776;SDS011;10548;47.504;8.248;2023-07-28T02:12:53;8.37;;;5.80;;
20776;SDS011;10548;47.504;8.248;2023-07-28T02:15:20;9.13;;;5.70;;
20776;SDS011;10548;47.504;8.248;2023-07-28T02:17:47;12.30;;;6.07;;
20776;SDS011;10548;47.504;8.248;2023-07-28T02:20:14;13.30;;;6.00;;
20776;SDS011;10548;47.504;8.248;2023-07-28T02:22:42;11.20;;;6.13;;
20776;SDS011;10548;47.504;8.248;2023-07-28T02:25:10;10.77;;;6.27;;
20776;SDS011;10548;47.504;8.248;2023-07-28T02:27:38;7.63;;;6.20;;
20776;SDS011;10548;47.504;8.248;2023-07-28T02:30:05;9.00;;;5.90;;
20776;SDS011;10548;47.504;8.248;2023-07-28T02:32:33;11.03;;;5.83;;
20776;SDS011;10548;47.504;8.248;2023-07-28T02:35:01;9.50;;;6.23;;
20776;SDS011;10548;47.504;8.248;2023-07-28T02:37:28;10.10;;;6.13;;
20776;SDS011;10548;47.504;8.248;2023-07-28T02:39:55;9.40;;;6.33;;
20776;SDS011;10548;47.504;8.248;2023-07-28T02:42:22;7.37;;;5.77;;
20776;SDS011;10548;47.504;8.248;2023-07-28T02:44:51;9.53;;;5.80;;
20776;SDS011;10548;47.504;8.248;2023-07-28T02:47:18;9.57;;;6.90;;
20776;SDS011;10548;47.504;8.248;2023-07-28T02:49:45;11.73;;;6.40;;
20776;SDS011;10548;47.504;8.248;2023-07-28T02:52:13;10.57;;;6.20;;
20776;SDS011;10548;47.504;8.248;2023-07-28T02:54:40;16.27;;;7.70;;
20776;SDS011;10548;47.504;8.248;2023-07-28T02:57:07;11.27;;;6.70;;
20776;SDS011;10548;47.504;8.248;2023-07-28T02:59:40;11.23;;;7.53;;
20776;SDS011;10548;47.504;8.248;2023-07-28T03:02:07;25.70;;;20.43;;
20776;SDS011;10548;47.504;8.248;2023-07-28T03:04:34;43.20;;;29.90;;
20776;SDS011;10548;47.504;8.248;2023-07-28T03:07:20;50.03;;;35.27;;
20776;SDS011;10548;47.504;8.248;2023-07-28T03:09:54;53.80;;;38.13;;
20776;SDS011;10548;47.504;8.248;2023-07-28T03:12:21;56.40;;;39.90;;
20776;SDS011;10548;47.504;8.248;2023-07-28T03:14:48;46.77;;;34.03;;
20776;SDS011;10548;47.504;8.248;2023-07-28T03:17:15;58.30;;;40.03;;
20776;SDS011;10548;47.504;8.248;2023-07-28T03:19:43;101.80;;;67.40;;
20776;SDS011;10548;47.504;8.248;2023-07-28T03:22:10;137.07;;;93.87;;
20776;SDS011;10548;47.504;8.248;2023-07-28T03:24:37;120.77;;;87.60;;
20776;SDS011;10548;47.504;8.248;2023-07-28T03:27:05;87.47;;;59.37;;
20776;SDS011;10548;47.504;8.248;2023-07-28T03:29:32;99.30;;;66.83;;
20776;SDS011;10548;47.504;8.248;2023-07-28T03:31:59;90.27;;;63.63;;
20776;SDS011;10548;47.504;8.248;2023-07-28T03:34:26;118.43;;;77.87;;
20776;SDS011;10548;47.504;8.248;2023-07-28T03:36:56;101.03;;;68.87;;
20776;SDS011;10548;47.504;8.248;2023-07-28T03:39:23;105.07;;;71.47;;
20776;SDS011;10548;47.504;8.248;2023-07-28T03:41:50;78.90;;;51.17;;
20776;SDS011;10548;47.504;8.248;2023-07-28T03:44:17;84.83;;;56.43;;
20776;SDS011;10548;47.504;8.248;2023-07-28T03:46:46;79.70;;;53.17;;
20776;SDS011;10548;47.504;8.248;2023-07-28T03:49:13;64.80;;;43.87;;
20776;SDS011;10548;47.504;8.248;2023-07-28T03:51:40;53.40;;;36.87;;
20776;SDS011;10548;47.504;8.248;2023-07-28T03:54:07;47.60;;;33.33;;
20776;SDS011;10548;47.504;8.248;2023-07-28T03:56:34;39.90;;;28.77;;
20776;SDS011;10548;47.504;8.248;2023-07-28T03:59:02;45.23;;;29.83;;
20776;SDS011;10548;47.504;8.248;2023-07-28T04:01:29;46.23;;;30.63;;
20776;SDS011;10548;47.504;8.248;2023-07-28T04:03:57;42.90;;;30.50;;
20776;SDS011;10548;47.504;8.248;2023-07-28T04:06:47;45.63;;;27.77;;
20776;SDS011;10548;47.504;8.248;2023-07-28T04:09:19;29.00;;;21.63;;
20776;SDS011;10548;47.504;8.248;2023-07-28T04:11:47;29.37;;;21.10;;
20776;SDS011;10548;47.504;8.248;2023-07-28T04:14:14;27.30;;;19.40;;
20776;SDS011;10548;47.504;8.248;2023-07-28T04:16:41;29.30;;;19.57;;
20776;SDS011;10548;47.504;8.248;2023-07-28T04:19:08;20.30;;;15.77;;
20776;SDS011;10548;47.504;8.248;2023-07-28T04:21:35;18.87;;;13.93;;
20776;SDS011;10548;47.504;8.248;2023-07-28T04:24:08;22.33;;;16.33;;
20776;SDS011;10548;47.504;8.248;2023-07-28T04:26:41;18.17;;;14.60;;
20776;SDS011;10548;47.504;8.248;2023-07-28T04:29:09;17.80;;;13.30;;
20776;SDS011;10548;47.504;8.248;2023-07-28T04:31:36;21.03;;;14.70;;
20776;SDS011;10548;47.504;8.248;2023-07-28T04:34:07;20.13;;;14.70;;
20776;SDS011;10548;47.504;8.248;2023-07-28T04:36:54;15.40;;;11.87;;
20776;SDS011;10548;47.504;8.248;2023-07-28T04:39:24;12.27;;;8.70;;
20776;SDS011;10548;47.504;8.248;2023-07-28T04:41:51;14.17;;;8.57;;
20776;SDS011;10548;47.504;8.248;2023-07-28T04:44:19;13.93;;;8.77;;
20776;SDS011;10548;47.504;8.248;2023-07-28T04:46:47;12.90;;;7.97;;
20776;SDS011;10548;47.504;8.248;2023-07-28T04:49:15;11.57;;;7.93;;
20776;SDS011;10548;47.504;8.248;2023-07-28T04:52:11;10.77;;;7.20;;
20776;SDS011;10548;47.504;8.248;2023-07-28T04:54:58;8.73;;;6.40;;
20776;SDS011;10548;47.504;8.248;2023-07-28T04:57:26;8.93;;;7.23;;
20776;SDS011;10548;47.504;8.248;2023-07-28T04:59:53;12.27;;;7.20;;
20776;SDS011;10548;47.504;8.248;2023-07-28T05:02:20;9.10;;;6.77;;
20776;SDS011;10548;47.504;8.248;2023-07-28T05:04:47;9.17;;;7.00;;
20776;SDS011;10548;47.504;8.248;2023-07-28T05:07:14;9.50;;;6.30;;
20776;SDS011;10548;47.504;8.248;2023-07-28T05:09:41;7.97;;;5.80;;
20776;SDS011;10548;47.504;8.248;2023-07-28T05:12:08;6.77;;;6.03;;
20776;SDS011;10548;47.504;8.248;2023-07-28T05:14:42;10.37;;;5.80;;
20776;SDS011;10548;47.504;8.248;2023-07-28T05:17:10;8.87;;;7.00;;
20776;SDS011;10548;47.504;8.248;2023-07-28T05:19:43;9.10;;;6.73;;
20776;SDS011;10548;47.504;8.248;2023-07-28T05:22:49;9.77;;;6.77;;
20776;SDS011;10548;47.504;8.248;2023-07-28T05:25:17;7.50;;;5.30;;
20776;SDS011;10548;47.504;8.248;2023-07-28T05:27:44;6.03;;;5.43;;
20776;SDS011;10548;47.504;8.248;2023-07-28T05:30:11;10.37;;;4.67;;
20776;SDS011;10548;47.504;8.248;2023-07-28T05:32:38;5.13;;;3.80;;
20776;SDS011;10548;47.504;8.248;2023-07-28T05:35:19;9.47;;;4.10;;
20776;SDS011;10548;47.504;8.248;2023-07-28T05:37:47;10.70;;;3.80;;
20776;SDS011;10548;47.504;8.248;2023-07-28T05:40:14;6.13;;;3.67;;
20776;SDS011;10548;47.504;8.248;2023-07-28T05:42:41;4.70;;;3.30;;
20776;SDS011;10548;47.504;8.248;2023-07-28T05:45:08;5.87;;;3.93;;
20776;SDS011;10548;47.504;8.248;2023-07-28T05:47:36;6.80;;;3.87;;
20776;SDS011;10548;47.504;8.248;2023-07-28T05:50:04;4.23;;;2.93;;
20776;SDS011;10548;47.504;8.248;2023-07-28T05:52:32;7.97;;;3.67;;
20776;SDS011;10548;47.504;8.248;2023-07-28T05:54:59;10.30;;;3.90;;
20776;SDS011;10548;47.504;8.248;2023-07-28T05:57:27;15.97;;;4.90;;
20776;SDS011;10548;47.504;8.248;2023-07-28T05:59:54;7.00;;;3.70;;
20776;SDS011;10548;47.504;8.248;2023-07-28T06:02:21;8.77;;;3.73;;
20776;SDS011;10548;47.504;8.248;2023-07-28T06:04:53;6.63;;;3.80;;
20776;SDS011;10548;47.504;8.248;2023-07-28T06:07:21;5.47;;;3.77;;
20776;SDS011;10548;47.504;8.248;2023-07-28T06:09:48;7.67;;;3.70;;
20776;SDS011;10548;47.504;8.248;2023-07-28T06:12:15;4.20;;;3.30;;
20776;SDS011;10548;47.504;8.248;2023-07-28T06:14:42;11.37;;;3.73;;
20776;SDS011;10548;47.504;8.248;2023-07-28T06:17:11;6.03;;;3.07;;
20776;SDS011;10548;47.504;8.248;2023-07-28T06:19:38;7.67;;;4.00;;
20776;SDS011;10548;47.504;8.248;2023-07-28T06:22:05;6.90;;;3.87;;
20776;SDS011;10548;47.504;8.248;2023-07-28T06:24:39;5.37;;;3.50;;
20776;SDS011;10548;47.504;8.248;2023-07-28T06:27:06;4.33;;;3.23;;
20776;SDS011;10548;47.504;8.248;2023-07-28T06:29:37;9.27;;;3.63;;
20776;SDS011;10548;47.504;8.248;2023-07-28T06:32:04;4.43;;;2.87;;
20776;SDS011;10548;47.504;8.248;2023-07-28T06:34:32;5.17;;;3.20;;
20776;SDS011;10548;47.504;8.248;2023-07-28T06:36:59;8.17;;;3.63;;
20776;SDS011;10548;47.504;8.248;2023-07-28T06:39:27;7.63;;;3.60;;
20776;SDS011;10548;47.504;8.248;2023-07-28T06:41:55;8.50;;;3.30;;
20776;SDS011;10548;47.504;8.248;2023-07-28T06:44:23;6.67;;;3.40;;
20776;SDS011;10548;47.504;8.248;2023-07-28T06:46:50;7.77;;;3.67;;
20776;SDS011;10548;47.504;8.248;2023-07-28T06:49:17;5.10;;;2.97;;
20776;SDS011;10548;47.504;8.248;2023-07-28T06:51:44;5.67;;;3.03;;
20776;SDS011;10548;47.504;8.248;2023-07-28T06:54:11;4.80;;;3.07;;
20776;SDS011;10548;47.504;8.248;2023-07-28T06:56:39;4.83;;;3.27;;
20776;SDS011;10548;47.504;8.248;2023-07-28T06:59:07;5.80;;;3.20;;
20776;SDS011;10548;47.504;8.248;2023-07-28T07:01:43;6.70;;;3.13;;
20776;SDS011;10548;47.504;8.248;2023-07-28T07:04:10;5.03;;;3.27;;
20776;SDS011;10548;47.504;8.248;2023-07-28T07:06:38;4.83;;;3.27;;
20776;SDS011;10548;47.504;8.248;2023-07-28T07:09:05;5.53;;;3.53;;
20776;SDS011;10548;47.504;8.248;2023-07-28T07:11:33;6.07;;;2.93;;
20776;SDS011;10548;47.504;8.248;2023-07-28T07:14:01;3.63;;;2.60;;
20776;SDS011;10548;47.504;8.248;2023-07-28T07:16:28;7.40;;;3.13;;
20776;SDS011;10548;47.504;8.248;2023-07-28T07:18:55;3.93;;;3.30;;
20776;SDS011;10548;47.504;8.248;2023-07-28T07:21:22;5.27;;;3.27;;
20776;SDS011;10548;47.504;8.248;2023-07-28T07:23:49;3.63;;;2.63;;
20776;SDS011;10548;47.504;8.248;2023-07-28T07:26:26;5.47;;;3.33;;
20776;SDS011;10548;47.504;8.248;2023-07-28T07:28:53;7.13;;;3.37;;
20776;SDS011;10548;47.504;8.248;2023-07-28T07:31:20;6.13;;;3.40;;
20776;SDS011;10548;47.504;8.248;2023-07-28T07:33:47;15.53;;;3.17;;
20776;SDS011;10548;47.504;8.248;2023-07-28T07:36:15;6.23;;;3.20;;
20776;SDS011;10548;47.504;8.248;2023-07-28T07:38:43;7.30;;;3.33;;
20776;SDS011;10548;47.504;8.248;2023-07-28T07:41:13;8.13;;;3.57;;
20776;SDS011;10548;47.504;8.248;2023-07-28T07:43:52;7.20;;;3.07;;
20776;SDS011;10548;47.504;8.248;2023-07-28T07:46:20;4.97;;;3.20;;
20776;SDS011;10548;47.504;8.248;2023-07-28T07:48:47;5.67;;;3.00;;
20776;SDS011;10548;47.504;8.248;2023-07-28T07:51:14;4.70;;;3.30;;
20776;SDS011;10548;47.504;8.248;2023-07-28T07:53:42;6.27;;;3.00;;
20776;SDS011;10548;47.504;8.248;2023-07-28T07:56:09;7.17;;;3.10;;
20776;SDS011;10548;47.504;8.248;2023-07-28T07:58:36;6.70;;;3.07;;
20776;SDS011;10548;47.504;8.248;2023-07-28T08:01:04;6.00;;;2.80;;
20776;SDS011;10548;47.504;8.248;2023-07-28T08:03:31;5.13;;;2.47;;
20776;SDS011;10548;47.504;8.248;2023-07-28T08:05:59;7.03;;;3.13;;
20776;SDS011;10548;47.504;8.248;2023-07-28T08:08:26;7.53;;;3.10;;
20776;SDS011;10548;47.504;8.248;2023-07-28T08:10:54;4.50;;;2.60;;
20776;SDS011;10548;47.504;8.248;2023-07-28T08:13:21;6.10;;;2.97;;
20776;SDS011;10548;47.504;8.248;2023-07-28T08:15:48;8.20;;;2.80;;
20776;SDS011;10548;47.504;8.248;2023-07-28T08:18:16;3.70;;;2.60;;
20776;SDS011;10548;47.504;8.248;2023-07-28T08:20:43;4.00;;;2.60;;
20776;SDS011;10548;47.504;8.248;2023-07-28T08:23:10;10.00;;;2.70;;
20776;SDS011;10548;47.504;8.248;2023-07-28T08:25:37;3.73;;;2.53;;
20776;SDS011;10548;47.504;8.248;2023-07-28T08:28:04;8.13;;;3.10;;
20776;SDS011;10548;47.504;8.248;2023-07-28T08:30:32;6.97;;;2.87;;
20776;SDS011;10548;47.504;8.248;2023-07-28T08:32:59;5.73;;;3.13;;
20776;SDS011;10548;47.504;8.248;2023-07-28T08:35:26;11.57;;;2.50;;
20776;SDS011;10548;47.504;8.248;2023-07-28T08:37:54;5.17;;;2.73;;
20776;SDS011;10548;47.504;8.248;2023-07-28T08:40:21;3.80;;;2.87;;
20776;SDS011;10548;47.504;8.248;2023-07-28T08:42:48;4.83;;;2.80;;
20776;SDS011;10548;47.504;8.248;2023-07-28T08:45:16;5.13;;;2.77;;
20776;SDS011;10548;47.504;8.248;2023-07-28T08:47:45;8.57;;;3.00;;
20776;SDS011;10548;47.504;8.248;2023-07-28T08:50:12;4.73;;;2.57;;
20776;SDS011;10548;47.504;8.248;2023-07-28T08:52:39;6.57;;;3.00;;
20776;SDS011;10548;47.504;8.248;2023-07-28T08:55:07;7.30;;;3.03;;
20776;SDS011;10548;47.504;8.248;2023-07-28T08:57:35;4.87;;;2.90;;
20776;SDS011;10548;47.504;8.248;2023-07-28T09:00:09;5.03;;;2.83;;
20776;SDS011;10548;47.504;8.248;2023-07-28T09:02:40;4.80;;;2.90;;
20776;SDS011;10548;47.504;8.248;2023-07-28T09:05:16;5.47;;;3.10;;
20776;SDS011;10548;47.504;8.248;2023-07-28T09:07:45;6.07;;;3.00;;
20776;SDS011;10548;47.504;8.248;2023-07-28T09:10:13;8.70;;;2.87;;
20776;SDS011;10548;47.504;8.248;2023-07-28T09:12:47;4.53;;;2.73;;
20776;SDS011;10548;47.504;8.248;2023-07-28T09:15:15;7.87;;;2.70;;
20776;SDS011;10548;47.504;8.248;2023-07-28T09:17:43;5.73;;;3.00;;
20776;SDS011;10548;47.504;8.248;2023-07-28T09:20:13;3.77;;;2.73;;
20776;SDS011;10548;47.504;8.248;2023-07-28T09:22:42;5.77;;;2.73;;
20776;SDS011;10548;47.504;8.248;2023-07-28T09:25:13;5.90;;;2.50;;
20776;SDS011;10548;47.504;8.248;2023-07-28T09:30:16;4.03;;;2.60;;
20776;SDS011;10548;47.504;8.248;2023-07-28T09:32:47;3.43;;;3.03;;
20776;SDS011;10548;47.504;8.248;2023-07-28T09:35:16;3.80;;;2.77;;
20776;SDS011;10548;47.504;8.248;2023-07-28T09:37:44;6.67;;;2.83;;
20776;SDS011;10548;47.504;8.248;2023-07-28T09:40:15;5.43;;;3.17;;
20776;SDS011;10548;47.504;8.248;2023-07-28T09:42:45;3.73;;;3.10;;
20776;SDS011;10548;47.504;8.248;2023-07-28T09:45:20;4.03;;;2.57;;
20776;SDS011;10548;47.504;8.248;2023-07-28T09:48:05;4.83;;;2.60;;
20776;SDS011;10548;47.504;8.248;2023-07-28T09:50:37;3.70;;;2.70;;
20776;SDS011;10548;47.504;8.248;2023-07-28T09:53:05;3.53;;;2.77;;
20776;SDS011;10548;47.504;8.248;2023-07-28T09:55:38;3.00;;;2.67;;
20776;SDS011;10548;47.504;8.248;2023-07-28T09:58:10;4.67;;;2.60;;
20776;SDS011;10548;47.504;8.248;2023-07-28T10:00:39;3.00;;;2.60;;
20776;SDS011;10548;47.504;8.248;2023-07-28T10:03:07;3.60;;;2.97;;
20776;SDS011;10548;47.504;8.248;2023-07-28T10:05:36;5.57;;;2.70;;
20776;SDS011;10548;47.504;8.248;2023-07-28T10:08:04;3.80;;;2.40;;
20776;SDS011;10548;47.504;8.248;2023-07-28T10:10:31;4.47;;;2.60;;
20776;SDS011;10548;47.504;8.248;2023-07-28T10:12:59;6.07;;;2.70;;
20776;SDS011;10548;47.504;8.248;2023-07-28T10:15:28;2.73;;;2.13;;
20776;SDS011;10548;47.504;8.248;2023-07-28T10:17:57;4.20;;;2.50;;
20776;SDS011;10548;47.504;8.248;2023-07-28T10:20:33;4.27;;;2.80;;
20776;SDS011;10548;47.504;8.248;2023-07-28T10:23:12;2.90;;;2.50;;
20776;SDS011;10548;47.504;8.248;2023-07-28T10:25:42;4.63;;;2.87;;
20776;SDS011;10548;47.504;8.248;2023-07-28T10:28:25;7.37;;;2.80;;
20776;SDS011;10548;47.504;8.248;2023-07-28T10:30:55;5.60;;;2.77;;
20776;SDS011;10548;47.504;8.248;2023-07-28T10:33:30;5.07;;;3.00;;
20776;SDS011;10548;47.504;8.248;2023-07-28T10:36:14;4.27;;;2.53;;
20776;SDS011;10548;47.504;8.248;2023-07-28T10:39:12;2.37;;;2.07;;
20776;SDS011;10548;47.504;8.248;2023-07-28T10:42:14;8.70;;;3.10;;
20776;SDS011;10548;47.504;8.248;2023-07-28T10:44:36;3.17;;;2.50;;
20776;SDS011;10548;47.504;8.248;2023-07-28T10:47:07;3.27;;;2.27;;
20776;SDS011;10548;47.504;8.248;2023-07-28T10:49:35;2.80;;;2.40;;
20776;SDS011;10548;47.504;8.248;2023-07-28T10:52:02;4.27;;;2.70;;
20776;SDS011;10548;47.504;8.248;2023-07-28T10:54:31;3.93;;;2.80;;
20776;SDS011;10548;47.504;8.248;2023-07-28T10:57:01;4.37;;;3.00;;
20776;SDS011;10548;47.504;8.248;2023-07-28T10:59:32;3.73;;;2.80;;
20776;SDS011;10548;47.504;8.248;2023-07-28T11:01:59;4.77;;;2.90;;
20776;SDS011;10548;47.504;8.248;2023-07-28T11:04:26;6.43;;;2.90;;
20776;SDS011;10548;47.504;8.248;2023-07-28T11:06:53;6.90;;;2.70;;
20776;SDS011;10548;47.504;8.248;2023-07-28T11:09:22;6.80;;;2.67;;
20776;SDS011;10548;47.504;8.248;2023-07-28T11:11:50;5.63;;;3.00;;
20776;SDS011;10548;47.504;8.248;2023-07-28T11:14:18;5.30;;;2.90;;
20776;SDS011;10548;47.504;8.248;2023-07-28T11:16:47;3.63;;;2.60;;
20776;SDS011;10548;47.504;8.248;2023-07-28T11:19:15;5.33;;;2.83;;
20776;SDS011;10548;47.504;8.248;2023-07-28T11:21:44;3.57;;;3.00;;
20776;SDS011;10548;47.504;8.248;2023-07-28T11:24:18;4.07;;;2.93;;
20776;SDS011;10548;47.504;8.248;2023-07-28T11:26:46;3.10;;;2.53;;
20776;SDS011;10548;47.504;8.248;2023-07-28T11:29:13;4.87;;;3.00;;
20776;SDS011;10548;47.504;8.248;2023-07-28T11:31:41;4.40;;;2.70;;
20776;SDS011;10548;47.504;8.248;2023-07-28T11:34:18;3.70;;;2.73;;
20776;SDS011;10548;47.504;8.248;2023-07-28T11:36:46;3.53;;;2.70;;
20776;SDS011;10548;47.504;8.248;2023-07-28T11:39:14;2.53;;;2.33;;
20776;SDS011;10548;47.504;8.248;2023-07-28T11:41:42;5.40;;;2.33;;
20776;SDS011;10548;47.504;8.248;2023-07-28T11:44:10;2.40;;;2.00;;
20776;SDS011;10548;47.504;8.248;2023-07-28T11:46:39;2.80;;;2.50;;
20776;SDS011;10548;47.504;8.248;2023-07-28T11:49:15;3.30;;;2.43;;
20776;SDS011;10548;47.504;8.248;2023-07-28T11:51:49;3.17;;;2.40;;
20776;SDS011;10548;47.504;8.248;2023-07-28T11:54:20;3.83;;;2.27;;
20776;SDS011;10548;47.504;8.248;2023-07-28T11:56:49;3.47;;;2.20;;
20776;SDS011;10548;47.504;8.248;2023-07-28T11:59:18;4.67;;;2.60;;
20776;SDS011;10548;47.504;8.248;2023-07-28T12:04:43;4.87;;;2.70;;
20776;SDS011;10548;47.504;8.248;2023-07-28T12:07:16;5.10;;;2.37;;
20776;SDS011;10548;47.504;8.248;2023-07-28T12:09:50;2.90;;;2.30;;
20776;SDS011;10548;47.504;8.248;2023-07-28T12:12:30;3.37;;;2.23;;
20776;SDS011;10548;47.504;8.248;2023-07-28T12:15:27;4.47;;;2.97;;
20776;SDS011;10548;47.504;8.248;2023-07-28T12:18:06;3.87;;;2.67;;
20776;SDS011;10548;47.504;8.248;2023-07-28T12:20:52;4.10;;;2.50;;
20776;SDS011;10548;47.504;8.248;2023-07-28T12:23:20;7.80;;;2.87;;
20776;SDS011;10548;47.504;8.248;2023-07-28T12:25:51;4.53;;;2.47;;
20776;SDS011;10548;47.504;8.248;2023-07-28T12:28:22;7.13;;;2.73;;
20776;SDS011;10548;47.504;8.248;2023-07-28T12:30:49;3.63;;;2.60;;
20776;SDS011;10548;47.504;8.248;2023-07-28T12:33:19;3.83;;;2.73;;
20776;SDS011;10548;47.504;8.248;2023-07-28T12:35:47;7.00;;;2.57;;
20776;SDS011;10548;47.504;8.248;2023-07-28T12:38:16;3.13;;;2.50;;
20776;SDS011;10548;47.504;8.248;2023-07-28T12:40:46;3.73;;;2.60;;
20776;SDS011;10548;47.504;8.248;2023-07-28T12:43:16;8.43;;;2.40;;
20776;SDS011;10548;47.504;8.248;2023-07-28T12:45:46;3.20;;;2.50;;
20776;SDS011;10548;47.504;8.248;2023-07-28T12:48:17;4.50;;;2.57;;
20776;SDS011;10548;47.504;8.248;2023-07-28T12:50:46;4.40;;;2.60;;
20776;SDS011;10548;47.504;8.248;2023-07-28T12:53:16;5.17;;;2.53;;
20776;SDS011;10548;47.504;8.248;2023-07-28T12:55:48;9.97;;;2.90;;
20776;SDS011;10548;47.504;8.248;2023-07-28T12:58:19;5.30;;;2.30;;
20776;SDS011;10548;47.504;8.248;2023-07-28T13:00:49;5.60;;;2.70;;
20776;SDS011;10548;47.504;8.248;2023-07-28T13:03:19;7.57;;;2.43;;
20776;SDS011;10548;47.504;8.248;2023-07-28T13:05:47;3.73;;;2.70;;
20776;SDS011;10548;47.504;8.248;2023-07-28T13:08:15;3.53;;;2.63;;
20776;SDS011;10548;47.504;8.248;2023-07-28T13:10:43;6.17;;;2.70;;
20776;SDS011;10548;47.504;8.248;2023-07-28T13:13:13;3.83;;;2.70;;
20776;SDS011;10548;47.504;8.248;2023-07-28T13:15:40;4.43;;;2.83;;
20776;SDS011;10548;47.504;8.248;2023-07-28T13:18:08;4.87;;;2.70;;
20776;SDS011;10548;47.504;8.248;2023-07-28T13:20:35;5.13;;;2.87;;
20776;SDS011;10548;47.504;8.248;2023-07-28T13:23:02;3.90;;;2.97;;
20776;SDS011;10548;47.504;8.248;2023-07-28T13:25:30;4.70;;;2.70;;
20776;SDS011;10548;47.504;8.248;2023-07-28T13:27:57;6.03;;;2.97;;
20776;SDS011;10548;47.504;8.248;2023-07-28T13:30:24;6.83;;;3.00;;
20776;SDS011;10548;47.504;8.248;2023-07-28T13:32:55;4.80;;;2.50;;
20776;SDS011;10548;47.504;8.248;2023-07-28T13:35:23;3.80;;;2.83;;
20776;SDS011;10548;47.504;8.248;2023-07-28T13:37:51;7.20;;;2.80;;
20776;SDS011;10548;47.504;8.248;2023-07-28T13:40:18;3.30;;;3.00;;
20776;SDS011;10548;47.504;8.248;2023-07-28T13:42:46;7.83;;;3.07;;
20776;SDS011;10548;47.504;8.248;2023-07-28T13:45:14;4.57;;;3.07;;
20776;SDS011;10548;47.504;8.248;2023-07-28T13:47:41;4.53;;;2.90;;
20776;SDS011;10548;47.504;8.248;2023-07-28T13:50:08;4.93;;;2.90;;
20776;SDS011;10548;47.504;8.248;2023-07-28T13:52:36;5.53;;;2.60;;
20776;SDS011;10548;47.504;8.248;2023-07-28T13:55:03;8.40;;;3.30;;
20776;SDS011;10548;47.504;8.248;2023-07-28T13:57:34;5.57;;;3.13;;
20776;SDS011;10548;47.504;8.248;2023-07-28T14:00:02;5.07;;;3.33;;
20776;SDS011;10548;47.504;8.248;2023-07-28T14:02:30;6.97;;;3.10;;
20776;SDS011;10548;47.504;8.248;2023-07-28T14:04:57;6.10;;;3.23;;
20776;SDS011;10548;47.504;8.248;2023-07-28T14:07:24;6.97;;;3.33;;
20776;SDS011;10548;47.504;8.248;2023-07-28T14:09:52;6.77;;;3.37;;
20776;SDS011;10548;47.504;8.248;2023-07-28T14:12:19;5.13;;;3.20;;
20776;SDS011;10548;47.504;8.248;2023-07-28T14:14:46;5.90;;;4.00;;
20776;SDS011;10548;47.504;8.248;2023-07-28T14:17:13;8.80;;;4.10;;
20776;SDS011;10548;47.504;8.248;2023-07-28T14:19:40;8.63;;;4.67;;
20776;SDS011;10548;47.504;8.248;2023-07-28T14:22:08;16.10;;;5.57;;
20776;SDS011;10548;47.504;8.248;2023-07-28T14:24:35;7.90;;;5.10;;
20776;SDS011;10548;47.504;8.248;2023-07-28T14:27:03;8.90;;;4.87;;
20776;SDS011;10548;47.504;8.248;2023-07-28T14:29:30;9.27;;;4.80;;
20776;SDS011;10548;47.504;8.248;2023-07-28T14:31:58;8.87;;;5.10;;
20776;SDS011;10548;47.504;8.248;2023-07-28T14:34:25;11.70;;;4.30;;
20776;SDS011;10548;47.504;8.248;2023-07-28T14:36:52;4.53;;;3.63;;
20776;SDS011;10548;47.504;8.248;2023-07-28T14:39:19;7.33;;;2.80;;
20776;SDS011;10548;47.504;8.248;2023-07-28T14:41:46;8.57;;;2.70;;
20776;SDS011;10548;47.504;8.248;2023-07-28T14:44:13;6.23;;;2.37;;
20776;SDS011;10548;47.504;8.248;2023-07-28T14:46:43;2.80;;;2.33;;
20776;SDS011;10548;47.504;8.248;2023-07-28T14:49:10;4.20;;;2.50;;
20776;SDS011;10548;47.504;8.248;2023-07-28T14:51:37;3.77;;;2.20;;
20776;SDS011;10548;47.504;8.248;2023-07-28T14:54:04;5.67;;;2.20;;
20776;SDS011;10548;47.504;8.248;2023-07-28T14:56:32;3.67;;;2.40;;
20776;SDS011;10548;47.504;8.248;2023-07-28T14:58:59;4.10;;;2.50;;
20776;SDS011;10548;47.504;8.248;2023-07-28T15:01:30;4.00;;;2.30;;
20776;SDS011;10548;47.504;8.248;2023-07-28T15:04:00;3.53;;;2.30;;